Time;durP1;ratioP1;P1;durP2;ratioP2;P2;SDS_P1;SDS_P2;PMS_P1;PMS_P2;Temp;Humidity;BMP_temperature;BMP_pressure;BME280_temperature;BME280_humidity;BME280_pressure;Samples;Min_cycle;Max_cycle;Signal;HPM_P1;HPM_P2
2023/05/06 00:01:01;;;;;;;1.95;1.20;;;12.60;99.90;;;;;;5087496;28;20067;-46
2023/05/06 00:03:28;;;;;;;5.38;1.38;;;12.50;99.90;;;;;;5054796;28;20040;-46
2023/05/06 00:05:55;;;;;;;;;;;12.60;99.90;;;;;;5086655;28;20448;-46
2023/05/06 00:08:22;;;;;;;2.05;1.50;;;12.50;99.90;;;;;;5071569;28;19973;-48
2023/05/06 00:10:48;;;;;;;3.50;1.67;;;12.50;99.90;;;;;;5055666;28;20040;-48
2023/05/06 00:13:15;;;;;;;4.13;1.80;;;12.50;99.90;;;;;;5071971;28;20044;-47
2023/05/06 00:15:42;;;;;;;4.40;2.00;;;12.50;99.90;;;;;;5089614;28;20409;-47
2023/05/06 00:18:09;;;;;;;4.28;2.05;;;12.50;99.90;;;;;;5089747;28;20489;-48
2023/05/06 00:20:36;;;;;;;5.30;1.63;;;12.50;99.90;;;;;;5083481;28;20076;-47
2023/05/06 00:23:02;;;;;;;4.97;2.10;;;12.50;99.90;;;;;;5087188;28;20048;-49
2023/05/06 00:25:29;;;;;;;6.43;2.53;;;12.50;99.90;;;;;;5089511;28;20067;-48
2023/05/06 00:27:56;;;;;;;2.65;1.52;;;12.50;99.90;;;;;;5084444;28;20120;-48
2023/05/06 00:30:23;;;;;;;3.17;1.38;;;12.50;99.90;;;;;;5071901;28;20097;-47
2023/05/06 00:32:50;;;;;;;1.70;1.27;;;12.40;99.90;;;;;;5089108;28;20095;-47
2023/05/06 00:35:17;;;;;;;5.88;1.50;;;12.50;99.90;;;;;;5071203;28;20052;-48
2023/05/06 00:37:45;;;;;;;2.25;1.20;;;12.50;99.90;;;;;;5067026;28;20052;-49
2023/05/06 00:40:13;;;;;;;2.25;1.33;;;12.50;99.90;;;;;;5089609;28;20089;-47
2023/05/06 00:42:39;;;;;;;4.30;1.27;;;12.50;99.90;;;;;;5071128;28;20075;-47
2023/05/06 00:45:07;;;;;;;4.15;1.45;;;12.40;99.90;;;;;;5083197;28;20040;-47
2023/05/06 00:47:34;;;;;;;2.45;1.33;;;12.40;99.90;;;;;;5087225;28;20954;-46
2023/05/06 00:50:02;;;;;;;2.88;1.42;;;12.50;99.90;;;;;;5069374;28;20476;-48
2023/05/06 00:52:29;;;;;;;1.75;1.38;;;12.40;99.90;;;;;;5071874;28;20562;-46
2023/05/06 00:54:56;;;;;;;4.82;1.50;;;12.40;99.90;;;;;;5090471;28;20064;-47
2023/05/06 00:57:23;;;;;;;1.80;1.60;;;12.40;99.90;;;;;;5070641;28;20133;-47
2023/05/06 00:59:50;;;;;;;;;;;12.40;99.90;;;;;;5071905;28;20079;-46
2023/05/06 01:02:16;;;;;;;2.05;1.52;;;12.30;99.90;;;;;;5081792;28;20330;-46
2023/05/06 01:04:44;;;;;;;4.78;1.60;;;12.40;99.90;;;;;;5071843;28;20047;-46
2023/05/06 01:07:13;;;;;;;3.30;1.98;;;12.30;99.90;;;;;;5089827;28;20059;-46
2023/05/06 01:09:56;;;;;;;4.63;2.35;;;12.30;99.90;;;;;;5068000;28;20105;-48
2023/05/06 01:12:34;;;;;;;4.28;2.65;;;12.30;99.90;;;;;;5088251;28;20094;-47
2023/05/06 01:15:07;;;;;;;3.53;2.92;;;12.30;99.90;;;;;;5089290;28;20043;-48
2023/05/06 01:17:43;;;;;;;3.97;2.50;;;12.30;99.90;;;;;;5076320;28;20447;-47
2023/05/06 01:20:11;;;;;;;5.07;3.20;;;12.20;99.90;;;;;;5067757;28;20042;-45
2023/05/06 01:22:38;;;;;;;4.35;2.90;;;12.20;99.90;;;;;;5087586;28;20459;-46
2023/05/06 01:25:06;;;;;;;3.65;2.78;;;12.20;99.90;;;;;;5067138;28;20033;-47
2023/05/06 01:27:34;;;;;;;3.97;3.03;;;12.10;99.90;;;;;;5083155;28;20051;-47
2023/05/06 01:30:03;;;;;;;6.80;3.05;;;12.10;99.90;;;;;;5062506;28;20052;-45
2023/05/06 01:32:38;;;;;;;6.18;3.70;;;12.10;99.90;;;;;;5093955;28;20438;-45
2023/05/06 01:35:28;;;;;;;6.63;3.47;;;12.00;99.90;;;;;;5092333;28;20064;-45
2023/05/06 01:38:18;;;;;;;5.07;3.22;;;12.00;99.90;;;;;;5075720;28;20569;-45
2023/05/06 01:40:53;;;;;;;5.63;3.45;;;12.00;99.90;;;;;;5073235;28;20433;-45
2023/05/06 01:43:20;;;;;;;5.75;3.72;;;11.90;99.90;;;;;;5081940;28;20051;-46
2023/05/06 01:45:52;;;;;;;6.47;3.78;;;12.00;99.90;;;;;;5066438;28;20032;-45
2023/05/06 01:48:26;;;;;;;7.53;3.13;;;11.90;99.90;;;;;;5064668;28;20580;-45
2023/05/06 01:50:54;;;;;;;3.85;3.40;;;11.90;99.90;;;;;;5087476;28;20055;-46
2023/05/06 01:53:21;;;;;;;3.67;3.25;;;11.80;99.90;;;;;;5066630;28;20062;-45
2023/05/06 01:55:48;;;;;;;10.13;3.55;;;11.80;99.90;;;;;;5093913;28;20109;-45
2023/05/06 01:58:15;;;;;;;4.88;3.40;;;11.70;99.90;;;;;;5069385;28;20256;-45
2023/05/06 02:00:42;;;;;;;7.72;3.15;;;11.70;99.90;;;;;;5093487;28;20101;-45
2023/05/06 02:03:10;;;;;;;6.35;3.20;;;11.70;99.90;;;;;;5090684;28;20074;-45
2023/05/06 02:05:37;;;;;;;3.85;3.25;;;11.60;99.90;;;;;;5074023;28;20044;-45
2023/05/06 02:08:05;;;;;;;5.10;3.22;;;11.60;99.90;;;;;;5056878;28;20386;-45
2023/05/06 02:10:32;;;;;;;9.18;3.38;;;11.60;99.90;;;;;;5074571;28;20089;-45
2023/05/06 02:13:05;;;;;;;6.25;2.53;;;11.60;99.90;;;;;;5057102;28;20052;-46
2023/05/06 02:15:33;;;;;;;;;;;11.60;99.90;;;;;;5072670;28;20044;-45
2023/05/06 02:18:00;;;;;;;3.60;1.77;;;11.50;99.90;;;;;;5073396;28;20679;-44
2023/05/06 02:20:27;;;;;;;5.18;1.73;;;11.60;99.90;;;;;;5073448;28;20493;-45
2023/05/06 02:22:53;;;;;;;3.58;1.13;;;11.60;99.90;;;;;;5068306;28;20052;-45
2023/05/06 02:25:21;;;;;;;2.28;1.40;;;11.60;99.90;;;;;;5093285;28;20392;-44
2023/05/06 02:27:48;;;;;;;;;;;11.50;99.90;;;;;;5068927;28;20048;-45
2023/05/06 02:30:15;;;;;;;2.08;1.33;;;11.50;99.90;;;;;;5073903;28;19928;-44
2023/05/06 02:32:42;;;;;;;1.63;1.20;;;11.50;99.90;;;;;;5063547;28;20044;-45
2023/05/06 02:35:09;;;;;;;5.35;2.10;;;11.50;99.90;;;;;;5091446;28;20051;-45
2023/05/06 02:37:36;;;;;;;3.17;2.00;;;11.50;99.90;;;;;;5068306;28;20109;-45
2023/05/06 02:40:05;;;;;;;3.20;2.00;;;11.60;99.90;;;;;;5069146;28;20059;-44
2023/05/06 02:42:34;;;;;;;8.02;2.42;;;11.50;99.90;;;;;;5091347;28;20097;-45
2023/05/06 02:45:01;;;;;;;3.72;1.80;;;11.50;99.90;;;;;;5092421;28;20067;-44
2023/05/06 02:47:31;;;;;;;3.15;1.80;;;11.50;99.90;;;;;;5086899;28;20033;-45
2023/05/06 02:49:57;;;;;;;3.05;1.98;;;11.50;99.90;;;;;;5089202;28;20044;-45
2023/05/06 02:52:24;;;;;;;1.42;1.20;;;11.50;99.90;;;;;;5072962;28;20043;-45
2023/05/06 02:54:51;;;;;;;3.42;1.20;;;11.50;99.90;;;;;;5074185;28;20054;-45
2023/05/06 02:57:18;;;;;;;3.33;1.60;;;11.50;99.90;;;;;;5089826;22;20058;-46
2023/05/06 02:59:44;;;;;;;3.47;1.50;;;11.60;99.90;;;;;;5121382;27;20054;-46
2023/05/06 03:02:17;;;;;;;2.83;2.00;;;11.60;99.90;;;;;;5124455;27;20050;-44
2023/05/06 03:04:44;;;;;;;2.30;1.90;;;11.60;99.90;;;;;;5138795;27;20042;-48
2023/05/06 03:07:11;;;;;;;3.50;2.47;;;11.60;99.90;;;;;;5125726;27;20043;-46
2023/05/06 03:09:39;;;;;;;1.80;1.70;;;11.60;99.90;;;;;;5134153;27;20045;-46
2023/05/06 03:12:06;;;;;;;2.28;1.98;;;11.60;99.90;;;;;;5148388;27;20126;-46
2023/05/06 03:14:33;;;;;;;4.30;2.00;;;11.60;99.90;;;;;;5134467;27;20041;-46
2023/05/06 03:17:00;;;;;;;2.95;1.95;;;11.60;99.90;;;;;;5151326;27;20091;-46
2023/05/06 03:19:27;;;;;;;5.50;2.00;;;11.60;99.90;;;;;;5130845;27;20081;-46
2023/05/06 03:21:54;;;;;;;2.42;1.75;;;11.60;99.90;;;;;;5145020;27;20440;-46
2023/05/06 03:24:21;;;;;;;1.75;1.58;;;11.60;99.90;;;;;;5150998;27;20039;-46
2023/05/06 03:26:48;;;;;;;3.95;2.13;;;11.50;99.90;;;;;;5133870;27;20058;-46
2023/05/06 03:29:14;;;;;;;4.63;1.80;;;11.50;99.90;;;;;;5130885;27;20037;-47
2023/05/06 03:31:43;;;;;;;3.95;1.95;;;11.50;99.90;;;;;;5128245;27;20058;-46
2023/05/06 03:34:11;;;;;;;2.28;1.75;;;11.50;99.90;;;;;;5132126;27;20507;-46
2023/05/06 03:36:38;;;;;;;2.55;2.35;;;11.50;99.90;;;;;;5152810;27;20125;-46
2023/05/06 03:39:05;;;;;;;4.85;3.15;;;11.40;99.90;;;;;;5150661;27;20069;-47
2023/05/06 03:41:34;;;;;;;4.68;3.38;;;11.40;99.90;;;;;;5125193;27;20129;-46
2023/05/06 03:44:01;;;;;;;5.38;3.67;;;11.40;99.90;;;;;;5133554;27;20046;-46
2023/05/06 03:46:28;;;;;;;3.72;1.88;;;11.40;99.90;;;;;;5151811;27;20062;-46
2023/05/06 03:48:55;;;;;;;3.47;2.40;;;11.40;99.90;;;;;;5140293;27;20088;-46
2023/05/06 03:51:22;;;;;;;2.53;1.63;;;11.60;99.90;;;;;;5116602;27;20567;-46
2023/05/06 03:53:48;;;;;;;2.28;1.70;;;11.50;99.90;;;;;;5145668;27;20082;-46
2023/05/06 03:56:17;;;;;;;4.05;1.40;;;11.50;99.90;;;;;;5130805;27;20043;-47
2023/05/06 03:58:54;;;;;;;4.65;1.60;;;11.50;99.90;;;;;;5126659;27;20046;-43
2023/05/06 04:01:22;;;;;;;4.00;1.60;;;11.50;99.90;;;;;;5130140;27;20053;-46
2023/05/06 04:03:50;;;;;;;3.42;1.60;;;11.50;99.90;;;;;;5128462;27;20051;-47
2023/05/06 04:06:17;;;;;;;6.57;2.13;;;11.50;99.90;;;;;;5132330;27;20110;-46
2023/05/06 04:08:44;;;;;;;7.68;2.08;;;11.60;99.90;;;;;;5146485;27;20448;-46
2023/05/06 04:11:12;;;;;;;7.05;2.20;;;11.60;99.90;;;;;;5130658;27;20039;-46
2023/05/06 04:13:39;;;;;;;5.03;3.33;;;11.60;99.90;;;;;;5140633;27;20129;-46
2023/05/06 04:16:12;;;;;;;8.50;2.50;;;11.60;99.90;;;;;;5140290;27;20066;-46
2023/05/06 04:18:42;;;;;;;6.03;2.70;;;11.70;99.90;;;;;;5134231;27;20411;-46
2023/05/06 04:21:12;;;;;;;6.07;2.10;;;11.70;99.90;;;;;;5122863;27;20074;-46
2023/05/06 04:23:42;;;;;;;3.05;2.20;;;11.60;99.90;;;;;;5143740;27;20142;-46
2023/05/06 04:26:11;;;;;;;4.00;2.90;;;11.60;99.90;;;;;;5120041;27;20050;-46
2023/05/06 04:28:40;;;;;;;4.82;2.90;;;11.60;99.90;;;;;;5115137;28;20039;-46
2023/05/06 04:31:09;;;;;;;7.43;2.92;;;11.50;99.90;;;;;;5129319;28;20130;-47
2023/05/06 04:33:42;;;;;;;6.18;3.15;;;11.60;99.90;;;;;;5156655;27;20445;-46
2023/05/06 04:36:14;;;;;;;5.78;3.40;;;11.60;99.90;;;;;;5124967;27;20035;-46
2023/05/06 04:38:52;;;;;;;4.80;3.25;;;11.60;99.90;;;;;;5140378;27;20043;-46
2023/05/06 04:41:22;;;;;;;4.57;3.80;;;11.70;99.90;;;;;;5121686;27;20091;-46
2023/05/06 04:43:49;;;;;;;8.10;3.17;;;11.70;99.90;;;;;;5152451;27;20563;-46
2023/05/06 04:46:20;;;;;;;4.30;2.72;;;11.80;99.90;;;;;;5150281;27;20502;-46
2023/05/06 04:48:47;;;;;;;6.45;2.42;;;11.80;99.90;;;;;;5130547;27;20053;-47
2023/05/06 04:51:15;;;;;;;4.47;2.13;;;11.90;99.90;;;;;;5150163;27;20049;-46
2023/05/06 04:53:42;;;;;;;5.43;1.50;;;11.90;99.90;;;;;;5125253;27;20088;-46
2023/05/06 04:56:09;;;;;;;2.38;1.75;;;11.90;99.90;;;;;;5133191;27;20118;-46
2023/05/06 04:58:35;;;;;;;2.03;1.67;;;12.00;99.90;;;;;;5133895;27;20099;-46
2023/05/06 05:01:05;;;;;;;3.53;2.58;;;12.00;99.90;;;;;;5150035;27;20049;-46
2023/05/06 05:03:32;;;;;;;7.40;3.95;;;12.00;99.90;;;;;;5134445;27;20043;-46
2023/05/06 05:06:00;;;;;;;5.22;3.70;;;12.10;99.90;;;;;;5139211;27;20133;-46
2023/05/06 05:08:27;;;;;;;11.40;5.22;;;12.10;99.90;;;;;;5137533;27;20039;-46
2023/05/06 05:10:55;;;;;;;7.40;4.63;;;12.10;99.90;;;;;;5130006;27;20130;-46
2023/05/06 05:13:24;;;;;;;8.80;4.00;;;12.00;99.90;;;;;;5133038;27;20138;-46
2023/05/06 05:15:55;;;;;;;9.52;4.15;;;12.00;99.90;;;;;;5133101;27;20039;-46
2023/05/06 05:18:27;;;;;;;5.13;3.60;;;12.00;99.90;;;;;;5131326;27;20128;-45
2023/05/06 05:20:58;;;;;;;7.60;4.25;;;12.10;99.90;;;;;;5142511;27;20065;-46
2023/05/06 05:23:26;;;;;;;5.78;4.07;;;12.20;99.90;;;;;;5120510;27;20091;-46
2023/05/06 05:25:53;;;;;;;8.85;4.35;;;12.20;99.90;;;;;;5153116;27;20473;-46
2023/05/06 05:28:20;;;;;;;6.55;4.80;;;12.30;99.90;;;;;;5138431;27;20034;-47
2023/05/06 05:30:46;;;;;;;4.57;2.70;;;12.40;99.90;;;;;;5136387;27;20800;-47
2023/05/06 05:33:13;;;;;;;1.55;1.05;;;12.60;99.90;;;;;;5131803;27;20043;-46
2023/05/06 05:35:41;;;;;;;1.77;1.30;;;12.70;99.90;;;;;;5141608;27;20047;-46
2023/05/06 05:38:08;;;;;;;4.05;1.40;;;12.80;99.90;;;;;;5122759;27;20079;-46
2023/05/06 05:40:36;;;;;;;1.60;0.95;;;12.90;99.90;;;;;;5146000;27;20039;-46
2023/05/06 05:43:04;;;;;;;2.45;1.38;;;13.00;99.90;;;;;;5153965;27;20415;-46
2023/05/06 05:45:35;;;;;;;8.05;2.15;;;13.00;99.90;;;;;;5138685;27;20055;-46
2023/05/06 05:48:02;;;;;;;4.60;2.97;;;13.10;99.90;;;;;;5130899;27;20066;-47
2023/05/06 05:50:29;;;;;;;6.88;3.83;;;13.10;99.90;;;;;;5126189;27;20066;-46
2023/05/06 05:52:57;;;;;;;5.57;3.60;;;13.10;99.90;;;;;;5131915;27;20039;-46
2023/05/06 05:55:25;;;;;;;7.15;3.83;;;13.00;99.90;;;;;;5137028;27;20457;-46
2023/05/06 05:57:52;;;;;;;4.88;3.67;;;13.00;99.90;;;;;;5132449;27;20051;-46
2023/05/06 06:00:20;;;;;;;6.57;2.65;;;12.90;99.90;;;;;;5150463;27;20049;-47
2023/05/06 06:02:53;;;;;;;6.35;3.33;;;12.90;99.90;;;;;;5130669;27;20070;-46
2023/05/06 06:05:20;;;;;;;8.65;2.90;;;13.00;99.90;;;;;;5136970;27;20038;-46
2023/05/06 06:07:47;;;;;;;5.95;3.03;;;13.10;99.90;;;;;;5138349;27;20039;-46
2023/05/06 06:10:14;;;;;;;3.78;2.85;;;13.10;99.90;;;;;;5132177;27;20064;-46
2023/05/06 06:12:43;;;;;;;5.10;3.30;;;13.10;99.90;;;;;;5134486;27;20045;-46
2023/05/06 06:15:13;;;;;;;5.35;3.25;;;13.20;99.90;;;;;;5132820;27;20061;-46
2023/05/06 06:17:42;;;;;;;7.32;3.30;;;13.30;99.90;;;;;;5127448;27;20043;-46
2023/05/06 06:20:12;;;;;;;4.68;3.55;;;13.40;99.90;;;;;;5131465;27;20054;-46
2023/05/06 06:22:38;;;;;;;9.23;4.63;;;13.40;99.90;;;;;;5134940;27;20448;-47
2023/05/06 06:25:06;;;;;;;9.70;4.03;;;13.60;99.90;;;;;;5134960;27;20031;-46
2023/05/06 06:27:35;;;;;;;7.07;3.40;;;13.60;99.90;;;;;;5128838;27;20043;-46
2023/05/06 06:30:02;;;;;;;4.13;3.28;;;13.50;99.90;;;;;;5135316;27;20415;-46
2023/05/06 06:32:29;;;;;;;5.93;3.63;;;13.60;99.90;;;;;;5147238;27;20038;-47
2023/05/06 06:34:56;;;;;;;7.20;4.22;;;13.70;99.90;;;;;;5134537;27;20031;-46
2023/05/06 06:37:23;;;;;;;6.72;4.72;;;13.90;99.90;;;;;;5127357;27;20039;-46
2023/05/06 06:39:49;;;;;;;7.95;4.22;;;13.90;99.90;;;;;;5148069;27;20082;-47
2023/05/06 06:42:16;;;;;;;6.75;4.40;;;13.90;99.90;;;;;;5145377;27;20078;-47
2023/05/06 06:44:56;;;;;;;6.15;4.20;;;13.90;99.90;;;;;;5130733;27;20598;-46
2023/05/06 06:47:23;;;;;;;5.97;4.40;;;13.80;99.90;;;;;;5148854;27;20471;-46
2023/05/06 06:49:49;;;;;;;5.57;3.83;;;13.80;99.90;;;;;;5149567;27;20039;-46
2023/05/06 06:52:16;;;;;;;7.60;3.55;;;13.80;99.90;;;;;;5149924;27;20118;-46
2023/05/06 06:54:43;;;;;;;3.75;3.05;;;13.90;99.90;;;;;;5149196;27;20091;-46
2023/05/06 06:57:10;;;;;;;5.57;3.55;;;14.10;99.90;;;;;;5145900;27;20039;-46
2023/05/06 06:59:36;;;;;;;5.03;4.15;;;14.10;99.90;;;;;;5153101;27;20035;-46
2023/05/06 07:02:03;;;;;;;8.50;4.32;;;14.00;99.90;;;;;;5147532;27;20130;-47
2023/05/06 07:04:30;;;;;;;7.72;3.38;;;14.10;99.90;;;;;;5153676;27;20046;-47
2023/05/06 07:06:57;;;;;;;5.30;3.53;;;14.20;99.90;;;;;;5148983;27;20039;-46
2023/05/06 07:09:23;;;;;;;6.55;3.53;;;14.30;99.90;;;;;;5144350;27;20502;-47
2023/05/06 07:11:50;;;;;;;5.45;3.55;;;14.50;99.90;;;;;;5139682;27;20491;-46
2023/05/06 07:14:17;;;;;;;5.50;3.30;;;14.70;99.90;;;;;;5146261;27;20047;-47
2023/05/06 07:16:43;;;;;;;11.32;3.67;;;15.00;99.90;;;;;;5148348;27;20479;-46
2023/05/06 07:19:12;;;;;;;3.90;3.10;;;15.20;99.90;;;;;;5152143;27;20122;-46
2023/05/06 07:21:39;;;;;;;9.27;3.72;;;15.40;99.90;;;;;;5145451;27;20039;-47
2023/05/06 07:24:06;;;;;;;7.95;3.67;;;15.50;99.90;;;;;;5147437;27;20091;-46
2023/05/06 07:26:36;;;;;;;6.47;4.05;;;15.60;99.90;;;;;;5149220;27;20042;-46
2023/05/06 07:29:03;;;;;;;8.57;3.60;;;15.50;99.90;;;;;;5150674;27;20039;-46
2023/05/06 07:31:32;;;;;;;4.40;3.25;;;15.60;99.90;;;;;;5129285;27;20410;-46
2023/05/06 07:33:59;;;;;;;8.38;3.10;;;15.70;99.90;;;;;;5134708;27;20100;-46
2023/05/06 07:36:26;;;;;;;5.97;3.95;;;16.00;99.90;;;;;;5149965;27;20074;-46
2023/05/06 07:38:53;;;;;;;6.85;3.40;;;16.20;99.90;;;;;;5148187;27;20507;-46
2023/05/06 07:41:20;;;;;;;4.45;3.70;;;16.30;99.90;;;;;;5152290;27;20502;-46
2023/05/06 07:43:46;;;;;;;8.98;3.80;;;16.30;99.90;;;;;;5150762;27;20547;-46
2023/05/06 07:46:13;;;;;;;4.72;3.50;;;16.30;99.90;;;;;;5151920;27;20047;-47
2023/05/06 07:48:40;;;;;;;4.95;3.63;;;16.40;99.90;;;;;;5132920;27;20441;-48
2023/05/06 07:51:07;;;;;;;6.43;3.58;;;16.50;99.90;;;;;;5133805;27;20049;-47
2023/05/06 07:53:34;;;;;;;9.15;3.55;;;16.50;99.90;;;;;;5146603;27;20495;-47
2023/05/06 07:56:02;;;;;;;5.75;2.88;;;16.40;99.90;;;;;;5150826;27;20070;-46
2023/05/06 07:58:30;;;;;;;5.03;3.15;;;16.40;99.90;;;;;;5147855;27;20486;-47
2023/05/06 08:00:57;;;;;;;9.23;3.67;;;16.50;99.90;;;;;;5132451;27;20460;-46
2023/05/06 08:03:24;;;;;;;5.07;3.33;;;16.50;99.90;;;;;;5142574;27;20034;-46
2023/05/06 08:05:52;;;;;;;;;;;16.40;99.90;;;;;;5152080;27;20047;-46
2023/05/06 08:08:18;;;;;;;6.35;3.90;;;16.30;99.90;;;;;;5149965;27;19938;-46
2023/05/06 08:10:45;;;;;;;9.32;4.75;;;16.40;99.90;;;;;;5139961;27;20551;-46
2023/05/06 08:13:12;;;;;;;6.45;3.97;;;16.60;99.90;;;;;;5151137;27;20047;-46
2023/05/06 08:15:39;;;;;;;6.03;4.60;;;16.60;99.90;;;;;;5152360;27;20134;-46
2023/05/06 08:18:06;;;;;;;5.35;4.20;;;16.60;99.90;;;;;;5150886;27;20042;-46
2023/05/06 08:20:48;;;;;;;12.07;4.20;;;17.00;99.90;;;;;;5148478;27;20514;-46
2023/05/06 08:23:15;;;;;;;9.73;4.35;;;17.70;99.90;;;;;;5150577;27;20050;-46
2023/05/06 08:25:42;;;;;;;7.53;4.15;;;18.20;99.90;;;;;;5121106;27;20039;-46
2023/05/06 08:28:08;;;;;;;5.22;4.03;;;18.10;99.90;;;;;;5148840;27;20274;-45
2023/05/06 08:30:35;;;;;;;7.30;4.28;;;17.20;99.90;;;;;;5150465;27;20156;-46
2023/05/06 08:33:02;;;;;;;6.30;4.30;;;17.00;99.90;;;;;;5141728;27;20372;-46
2023/05/06 08:35:29;;;;;;;9.30;4.80;;;16.70;99.90;;;;;;5147569;27;20082;-46
2023/05/06 08:37:56;;;;;;;5.53;3.53;;;16.80;99.90;;;;;;5130136;27;20415;-46
2023/05/06 08:40:25;;;;;;;8.18;4.50;;;16.90;99.90;;;;;;5131427;27;20039;-46
2023/05/06 08:42:56;;;;;;;6.30;4.32;;;16.80;99.90;;;;;;5140739;27;20061;-46
2023/05/06 08:45:23;;;;;;;10.73;4.40;;;16.60;99.90;;;;;;5149731;27;20506;-46
2023/05/06 08:47:50;;;;;;;4.50;3.70;;;16.50;99.90;;;;;;5147405;27;20414;-46
2023/05/06 08:50:17;;;;;;;;;;;16.40;99.90;;;;;;5151326;27;20485;-46
2023/05/06 08:52:44;;;;;;;5.25;3.85;;;16.40;99.90;;;;;;5151109;27;19919;-47
2023/05/06 08:55:11;;;;;;;8.02;4.05;;;16.50;99.90;;;;;;5143485;27;20053;-46
2023/05/06 08:57:41;;;;;;;4.93;3.75;;;16.70;99.90;;;;;;5157970;22;20026;-46
2023/05/06 09:00:09;;;;;;;7.60;3.72;;;16.70;99.90;;;;;;5096200;28;20040;-46
2023/05/06 09:02:37;;;;;;;6.30;3.58;;;16.80;99.90;;;;;;5092628;28;20160;-46
2023/05/06 09:05:08;;;;;;;6.60;3.50;;;17.20;99.90;;;;;;5109426;28;20047;-47
2023/05/06 09:07:36;;;;;;;4.90;3.45;;;17.90;99.90;;;;;;5101000;28;20089;-48
2023/05/06 09:10:11;;;;;;;5.45;3.70;;;18.60;99.90;;;;;;5102652;28;20100;-46
2023/05/06 09:12:38;;;;;;;4.95;3.80;;;19.10;99.90;;;;;;5089828;28;20038;-46
2023/05/06 09:15:05;;;;;;;;;;;19.40;99.90;;;;;;5093765;28;20665;-46
2023/05/06 09:17:32;;;;;;;4.20;3.78;;;19.50;99.90;;;;;;5100417;28;19924;-46
2023/05/06 09:19:59;;;;;;;6.28;3.53;;;19.70;99.90;;;;;;5108795;28;20050;-46
2023/05/06 09:22:29;;;;;;;7.13;4.43;;;19.40;99.90;;;;;;5110402;28;20479;-47
2023/05/06 09:24:57;;;;;;;6.22;4.45;;;19.00;99.90;;;;;;5108028;28;20040;-46
2023/05/06 09:27:32;;;;;;;7.68;4.43;;;18.50;99.90;;;;;;5103296;28;20553;-46
2023/05/06 09:30:02;;;;;;;8.32;4.25;;;18.40;99.90;;;;;;5106887;28;20535;-46
2023/05/06 09:32:29;;;;;;;7.65;4.50;;;18.40;99.90;;;;;;5082621;28;20082;-46
2023/05/06 09:34:56;;;;;;;;;;;18.50;99.90;;;;;;5107069;28;20515;-45
2023/05/06 09:37:25;;;;;;;5.90;4.13;;;18.70;99.90;;;;;;5110558;28;19968;-48
2023/05/06 09:39:58;;;;;;;6.38;4.80;;;18.80;99.90;;;;;;5109835;28;20055;-47
2023/05/06 09:42:27;;;;;;;6.50;4.40;;;18.80;99.90;;;;;;5111497;28;20043;-46
2023/05/06 09:44:56;;;;;;;5.57;4.50;;;18.70;99.90;;;;;;5109048;28;20028;-47
2023/05/06 09:47:31;;;;;;;7.70;4.00;;;18.40;99.90;;;;;;5110676;28;20043;-46
2023/05/06 09:49:58;;;;;;;9.13;4.63;;;18.40;99.90;;;;;;5111729;28;20036;-46
2023/05/06 09:52:28;;;;;;;5.82;4.10;;;18.10;99.90;;;;;;5093258;28;20412;-46
2023/05/06 09:54:56;;;;;;;6.47;4.13;;;17.80;99.90;;;;;;5095691;28;20047;-48
2023/05/06 09:57:23;;;;;;;6.00;4.25;;;17.50;99.90;;;;;;5099138;28;20410;-46
2023/05/06 09:59:53;;;;;;;8.10;3.97;;;17.30;99.90;;;;;;5079794;28;20692;-47
2023/05/06 10:02:22;;;;;;;5.25;4.13;;;17.30;99.90;;;;;;5106143;28;20514;-46
2023/05/06 10:04:51;;;;;;;6.97;4.30;;;17.20;99.90;;;;;;5096321;28;20043;-46
2023/05/06 10:07:24;;;;;;;6.57;4.30;;;17.30;99.90;;;;;;5093287;28;20491;-46
2023/05/06 10:09:52;;;;;;;6.55;3.88;;;17.30;99.90;;;;;;5101879;28;20079;-45
2023/05/06 10:12:19;;;;;;;7.30;4.45;;;17.30;99.90;;;;;;5112086;28;20438;-47
2023/05/06 10:14:46;;;;;;;7.50;4.63;;;17.10;99.90;;;;;;5103727;28;20051;-46
2023/05/06 10:17:13;;;;;;;10.38;5.03;;;17.00;99.90;;;;;;5113664;28;20561;-46
2023/05/06 10:19:44;;;;;;;6.50;4.45;;;16.90;99.90;;;;;;5111041;28;20067;-46
2023/05/06 10:22:37;;;;;;;5.25;3.70;;;16.90;99.90;;;;;;5113160;28;20044;-46
2023/05/06 10:25:07;;;;;;;11.20;4.43;;;16.90;99.90;;;;;;5094359;28;20039;-46
2023/05/06 10:27:40;;;;;;;9.50;3.92;;;16.80;99.90;;;;;;5102069;28;20040;-46
2023/05/06 10:30:09;;;;;;;5.72;4.05;;;16.70;99.90;;;;;;5105393;28;21886;-46
2023/05/06 10:32:40;;;;;;;5.18;3.88;;;16.60;99.90;;;;;;5111597;28;20044;-46
2023/05/06 10:35:16;;;;;;;6.50;3.50;;;16.50;99.90;;;;;;5104593;28;20057;-46
2023/05/06 10:37:45;;;;;;;6.63;3.30;;;16.50;99.90;;;;;;5103640;28;20528;-46
2023/05/06 10:40:12;;;;;;;6.22;3.80;;;16.50;99.90;;;;;;5101478;28;20508;-46
2023/05/06 10:42:39;;;;;;;7.90;3.80;;;16.50;99.90;;;;;;5091508;28;20569;-46
2023/05/06 10:45:08;;;;;;;14.20;3.60;;;16.40;99.90;;;;;;5111379;28;20093;-46
2023/05/06 10:47:57;;;;;;;6.00;3.38;;;16.40;99.90;;;;;;5077928;28;20577;-45
2023/05/06 10:50:25;;;;;;;10.13;4.20;;;16.50;99.90;;;;;;5092667;28;20065;-47
2023/05/06 10:52:54;;;;;;;7.03;3.78;;;16.50;99.90;;;;;;5107537;28;20070;-46
2023/05/06 10:55:31;;;;;;;6.88;4.07;;;16.50;99.90;;;;;;5110129;28;20039;-47
2023/05/06 10:58:13;;;;;;;9.00;4.25;;;16.50;99.90;;;;;;5105255;28;20123;-49
2023/05/06 11:00:40;;;;;;;6.40;3.75;;;16.30;99.90;;;;;;5111314;28;20039;-45
2023/05/06 11:03:10;;;;;;;7.05;4.32;;;16.20;99.90;;;;;;5107768;28;20048;-46
2023/05/06 11:05:48;;;;;;;7.63;4.80;;;16.30;99.90;;;;;;5111159;28;20043;-46
2023/05/06 11:08:21;;;;;;;7.95;4.40;;;17.00;99.90;;;;;;5102481;28;20392;-46
2023/05/06 11:10:48;;;;;;;6.97;4.57;;;16.70;99.90;;;;;;5109487;28;20115;-46
2023/05/06 11:13:20;;;;;;;5.18;4.30;;;17.00;99.90;;;;;;5111845;28;20032;-45
2023/05/06 11:15:50;;;;;;;7.95;4.60;;;17.10;99.90;;;;;;5109953;28;20053;-46
2023/05/06 11:18:23;;;;;;;10.32;5.85;;;17.20;99.90;;;;;;5110202;28;20062;-47
2023/05/06 11:21:11;;;;;;;9.18;4.75;;;17.30;99.90;;;;;;5090993;28;20048;-46
2023/05/06 11:23:41;;;;;;;6.47;4.45;;;17.70;99.90;;;;;;5097861;28;20556;-46
2023/05/06 11:26:09;;;;;;;8.07;4.63;;;18.00;99.90;;;;;;5111919;28;20058;-46
2023/05/06 11:28:37;;;;;;;9.32;4.65;;;18.20;99.90;;;;;;5110323;28;20083;-46
2023/05/06 11:31:04;;;;;;;7.32;4.63;;;18.40;99.90;;;;;;5110341;28;20101;-45
2023/05/06 11:33:32;;;;;;;;;;;18.50;99.90;;;;;;5105879;28;20516;-46
2023/05/06 11:35:59;;;;;;;7.07;4.95;;;18.70;99.90;;;;;;5100100;28;20014;-46
2023/05/06 11:38:46;;;;;;;7.78;5.32;;;19.00;99.90;;;;;;5111396;28;20119;-47
2023/05/06 11:41:14;;;;;;;8.63;5.15;;;19.20;99.90;;;;;;5109914;28;20051;-46
2023/05/06 11:43:51;;;;;;;17.30;5.72;;;19.60;99.90;;;;;;5111414;28;20088;-46
2023/05/06 11:46:20;;;;;;;6.23;5.30;;;20.10;99.90;;;;;;5110243;28;20058;-46
2023/05/06 11:48:47;;;;;;;9.43;5.50;;;19.70;99.90;;;;;;5094733;28;20047;-46
2023/05/06 11:51:15;;;;;;;7.47;5.50;;;19.80;99.90;;;;;;5102018;28;20085;-48
2023/05/06 11:53:41;;;;;;;7.90;5.25;;;20.20;99.90;;;;;;5095843;28;20052;-46
2023/05/06 11:56:08;;;;;;;7.05;5.32;;;20.40;99.90;;;;;;5108741;28;20077;-48
2023/05/06 11:58:35;;;;;;;9.35;5.60;;;20.50;99.90;;;;;;5096037;28;20044;-47
2023/05/06 12:01:03;;;;;;;6.60;5.13;;;20.40;99.90;;;;;;5090562;28;20055;-48
2023/05/06 12:03:31;;;;;;;9.93;5.32;;;20.80;99.90;;;;;;5097831;28;20058;-48
2023/05/06 12:05:58;;;;;;;5.97;5.15;;;21.00;99.90;;;;;;5091634;28;20116;-46
2023/05/06 12:08:32;;;;;;;6.60;4.63;;;20.90;99.90;;;;;;5109795;28;20403;-46
2023/05/06 12:11:05;;;;;;;7.78;4.03;;;20.80;99.90;;;;;;5109635;28;20399;-47
2023/05/06 12:13:35;;;;;;;7.47;4.63;;;20.60;99.90;;;;;;5103751;28;20271;-47
2023/05/06 12:16:03;;;;;;;7.60;4.70;;;20.70;99.90;;;;;;5092806;28;20101;-46
2023/05/06 12:18:30;;;;;;;5.95;3.80;;;20.50;99.90;;;;;;5089599;28;20036;-46
2023/05/06 12:21:01;;;;;;;5.05;3.60;;;20.50;99.90;;;;;;5095506;28;20070;-46
2023/05/06 12:23:28;;;;;;;6.10;3.90;;;20.60;99.90;;;;;;5098982;28;20104;-47
2023/05/06 12:26:05;;;;;;;4.63;3.53;;;20.80;99.90;;;;;;5111291;28;20051;-47
2023/05/06 12:28:34;;;;;;;;;;;21.00;99.90;;;;;;5109616;28;20389;-46
2023/05/06 12:31:22;;;;;;;5.18;3.70;;;20.70;99.90;;;;;;5111216;28;19926;-46
2023/05/06 12:33:50;;;;;;;4.97;3.97;;;20.80;99.90;;;;;;5090798;28;20103;-48
2023/05/06 12:36:18;;;;;;;5.75;4.88;;;21.00;99.90;;;;;;5110846;28;20048;-46
2023/05/06 12:38:59;;;;;;;5.22;4.13;;;20.90;99.90;;;;;;5109117;28;20096;-46
2023/05/06 12:41:44;;;;;;;5.50;3.55;;;21.10;99.90;;;;;;5107621;28;20044;-46
2023/05/06 12:44:37;;;;;;;10.10;3.88;;;21.30;99.90;;;;;;5110390;28;20051;-47
2023/05/06 12:47:17;;;;;;;5.72;3.40;;;21.70;99.90;;;;;;5109777;28;20036;-47
2023/05/06 12:49:48;;;;;;;5.05;3.53;;;22.20;99.90;;;;;;5088342;28;20173;-46
2023/05/06 12:52:16;;;;;;;6.00;3.45;;;22.70;99.90;;;;;;5097770;28;20044;-47
2023/05/06 12:54:43;;;;;;;5.20;3.22;;;23.00;99.90;;;;;;5109145;28;20070;-46
2023/05/06 12:57:10;;;;;;;9.98;4.60;;;22.90;99.90;;;;;;5109705;28;20051;-48